createdAt,value
2018-08-09T00:02:26.137Z,21.70
2018-08-09T00:04:54.534Z,21.60
2018-08-09T00:07:22.719Z,21.60
2018-08-09T00:09:50.745Z,21.70
2018-08-09T00:12:18.794Z,22.00
2018-08-09T00:14:46.794Z,22.20
2018-08-09T00:17:14.950Z,22.40
2018-08-09T00:19:42.994Z,22.20
2018-08-09T00:22:10.997Z,22.00
2018-08-09T00:24:39.042Z,21.80
2018-08-09T00:27:07.073Z,21.70
2018-08-09T00:29:35.082Z,21.70
2018-08-09T00:32:03.154Z,21.60
2018-08-09T00:34:31.239Z,21.50
2018-08-09T00:36:59.295Z,21.30
2018-08-09T00:39:27.338Z,21.30
2018-08-09T00:41:55.345Z,21.20
2018-08-09T00:44:23.568Z,21.20
2018-08-09T00:46:51.653Z,21.20
2018-08-09T00:49:19.831Z,21.30
2018-08-09T00:51:47.841Z,21.30
2018-08-09T00:54:15.913Z,21.50
2018-08-09T00:56:43.997Z,21.60
2018-08-09T00:59:12.073Z,21.60
2018-08-09T01:01:40.129Z,21.50
2018-08-09T01:04:08.121Z,21.50
2018-08-09T01:06:36.321Z,21.50
2018-08-09T01:09:07.677Z,21.50
2018-08-09T01:11:36.321Z,21.50
2018-08-09T01:14:04.782Z,21.50
2018-08-09T01:16:32.860Z,21.50
2018-08-09T01:19:00.944Z,21.50
2018-08-09T01:21:29.342Z,21.40
2018-08-09T01:23:57.355Z,21.20
2018-08-09T01:26:25.362Z,21.20
2018-08-09T01:28:53.396Z,21.40
2018-08-09T01:31:29.085Z,21.30
2018-08-09T01:33:57.102Z,21.10
2018-08-09T01:36:25.321Z,20.90
2018-08-09T01:38:53.536Z,20.90
2018-08-09T01:41:21.593Z,21.10
2018-08-09T01:43:55.830Z,21.30
2018-08-09T01:46:24.309Z,21.40
2018-08-09T01:48:52.393Z,21.50
2018-08-09T01:51:20.490Z,21.50
2018-08-09T01:53:48.869Z,21.20
2018-08-09T01:56:16.957Z,21.20
2018-08-09T01:58:45.132Z,21.10
2018-08-09T02:01:13.204Z,21.00
2018-08-09T02:03:41.822Z,21.00
2018-08-09T02:06:09.825Z,21.00
2018-08-09T02:08:37.923Z,21.20
2018-08-09T02:11:06.690Z,21.40
2018-08-09T02:13:34.691Z,21.40
2018-08-09T02:16:02.694Z,21.50
2018-08-09T02:18:30.743Z,21.50
2018-08-09T02:20:58.746Z,21.50
2018-08-09T02:23:26.777Z,21.50
2018-08-09T02:25:54.801Z,21.50
2018-08-09T02:28:22.869Z,21.50
2018-08-09T02:30:50.914Z,21.50
2018-08-09T02:33:18.909Z,21.40
2018-08-09T02:35:47.175Z,21.50
2018-08-09T02:38:15.193Z,21.50
2018-08-09T02:40:43.201Z,21.50
2018-08-09T02:43:11.245Z,21.40
2018-08-09T02:45:39.358Z,21.30
2018-08-09T02:48:07.358Z,21.00
2018-08-09T02:50:35.422Z,20.90
2018-08-09T02:53:03.506Z,21.10
2018-08-09T02:55:31.556Z,21.30
2018-08-09T02:57:59.558Z,21.30
2018-08-09T03:00:27.669Z,21.30
2018-08-09T03:02:55.741Z,21.20
2018-08-09T03:05:24.051Z,21.00
2018-08-09T03:07:52.170Z,21.30
2018-08-09T03:10:20.255Z,21.20
2018-08-09T03:12:48.293Z,21.10
2018-08-09T03:15:16.325Z,21.10
2018-08-09T03:17:44.452Z,21.30
2018-08-09T03:20:12.533Z,21.20
2018-08-09T03:22:40.578Z,21.00
2018-08-09T03:25:08.610Z,21.00
2018-08-09T03:27:36.689Z,21.00
2018-08-09T03:30:05.906Z,20.90
2018-08-09T03:32:33.942Z,20.90
2018-08-09T03:35:01.977Z,20.90
2018-08-09T03:37:29.989Z,21.00
2018-08-09T03:39:58.134Z,21.10
2018-08-09T03:42:26.142Z,21.10
2018-08-09T03:44:54.173Z,21.00
2018-08-09T03:47:22.288Z,21.00
2018-08-09T03:49:50.374Z,21.00
2018-08-09T03:52:18.422Z,20.90
2018-08-09T03:54:46.420Z,20.90
2018-08-09T03:57:14.502Z,20.90
2018-08-09T03:59:42.624Z,20.90
2018-08-09T04:02:10.690Z,21.00
2018-08-09T04:04:39.081Z,20.90
2018-08-09T04:07:07.162Z,20.90
2018-08-09T04:09:35.152Z,21.00
2018-08-09T04:12:03.270Z,21.10
2018-08-09T04:14:31.210Z,21.10
2018-08-09T04:16:59.248Z,21.10
2018-08-09T04:19:27.250Z,21.00
2018-08-09T04:21:55.257Z,21.10
2018-08-09T04:24:23.649Z,21.00
2018-08-09T04:26:51.746Z,21.10
2018-08-09T04:29:19.822Z,21.20
2018-08-09T04:31:48.218Z,21.20
2018-08-09T04:34:16.262Z,21.40
2018-08-09T04:36:44.378Z,21.40
2018-08-09T04:39:12.422Z,21.50
2018-08-09T04:41:40.465Z,21.50
2018-08-09T04:44:08.521Z,21.60
2018-08-09T04:46:36.706Z,21.80
2018-08-09T04:49:04.798Z,21.90
2018-08-09T04:51:33.774Z,21.90
2018-08-09T04:54:01.813Z,21.70
2018-08-09T04:56:29.905Z,21.60
2018-08-09T04:58:57.959Z,21.50
2018-08-09T05:01:26.007Z,21.50
2018-08-09T05:03:54.525Z,21.50
2018-08-09T05:06:22.618Z,21.40
2018-08-09T05:08:50.654Z,21.40
2018-08-09T05:11:18.653Z,21.50
2018-08-09T05:13:46.690Z,21.50
2018-08-09T05:16:14.721Z,21.60
2018-08-09T05:18:42.733Z,21.50
2018-08-09T05:21:10.820Z,21.50
2018-08-09T05:23:38.898Z,21.50
2018-08-09T05:26:07.324Z,21.60
2018-08-09T05:28:35.377Z,21.50
2018-08-09T05:31:03.457Z,21.50
2018-08-09T05:33:31.482Z,21.50
2018-08-09T05:35:59.562Z,21.50
2018-08-09T05:38:27.612Z,21.60
2018-08-09T05:40:55.694Z,21.50
2018-08-09T05:43:23.690Z,21.60
2018-08-09T05:45:51.762Z,21.80
2018-08-09T05:48:19.846Z,21.90
2018-08-09T05:50:47.927Z,22.10
2018-08-09T05:53:16.203Z,22.30
2018-08-09T05:55:44.158Z,22.10
2018-08-09T05:58:12.165Z,22.30
2018-08-09T06:00:40.204Z,22.80
2018-08-09T06:03:08.401Z,22.70
2018-08-09T06:05:36.531Z,22.80
2018-08-09T06:08:04.622Z,22.80
2018-08-09T06:10:32.701Z,22.90
2018-08-09T06:13:00.712Z,23.20
2018-08-09T06:15:28.757Z,23.10
2018-08-09T06:17:56.797Z,23.30
2018-08-09T06:20:25.148Z,23.60
2018-08-09T06:22:53.151Z,23.60
2018-08-09T06:25:21.210Z,23.60
2018-08-09T06:27:49.275Z,23.70
2018-08-09T06:30:17.270Z,23.80
2018-08-09T06:32:45.662Z,23.70
2018-08-09T06:35:13.662Z,24.00
2018-08-09T06:37:41.706Z,24.10
2018-08-09T06:40:12.511Z,24.10
2018-08-09T06:42:41.281Z,23.90
2018-08-09T06:45:09.358Z,23.90
2018-08-09T06:47:37.449Z,23.90
2018-08-09T06:50:06.090Z,23.80
2018-08-09T06:52:34.132Z,23.80
2018-08-09T06:55:02.218Z,23.80
2018-08-09T06:57:30.217Z,24.00
2018-08-09T06:59:58.289Z,24.00
2018-08-09T07:02:26.527Z,24.00
2018-08-09T07:04:54.857Z,24.20
2018-08-09T07:07:22.943Z,24.10
2018-08-09T07:09:51.016Z,24.20
2018-08-09T07:12:19.118Z,24.30
2018-08-09T07:14:47.113Z,24.20
2018-08-09T07:17:15.150Z,24.00
2018-08-09T07:19:43.265Z,24.50
2018-08-09T07:22:11.355Z,24.90
2018-08-09T07:24:39.397Z,24.60
2018-08-09T07:27:07.392Z,24.80
2018-08-09T07:29:35.390Z,24.90
2018-08-09T07:32:03.487Z,25.00
2018-08-09T07:34:31.574Z,25.20
2018-08-09T07:36:59.570Z,25.20
2018-08-09T07:39:27.731Z,25.10
2018-08-09T07:41:55.679Z,25.10
2018-08-09T07:44:23.689Z,25.20
2018-08-09T07:46:51.901Z,25.10
2018-08-09T07:49:20.074Z,25.10
2018-08-09T07:51:48.764Z,25.20
2018-08-09T07:54:16.840Z,25.30
2018-08-09T07:56:45.146Z,25.50
2018-08-09T07:59:13.234Z,25.40
2018-08-09T08:01:41.313Z,25.60
2018-08-09T08:04:09.413Z,25.80
2018-08-09T08:06:37.409Z,26.00
2018-08-09T08:09:08.357Z,26.00
2018-08-09T08:11:36.424Z,25.90
2018-08-09T08:14:04.942Z,25.90
2018-08-09T08:16:32.995Z,26.40
2018-08-09T08:19:01.285Z,26.70
2018-08-09T08:21:29.374Z,26.80
2018-08-09T08:23:57.445Z,26.90
2018-08-09T08:26:25.481Z,27.00
2018-08-09T08:28:53.486Z,26.60
2018-08-09T08:31:21.525Z,26.60
2018-08-09T08:33:49.893Z,27.00
2018-08-09T08:36:17.977Z,27.20
2018-08-09T08:38:46.266Z,27.40
2018-08-09T08:41:14.553Z,27.50
2018-08-09T08:43:42.626Z,27.30
2018-08-09T08:46:10.827Z,27.00
2018-08-09T08:48:38.878Z,27.30
2018-08-09T08:51:06.885Z,27.60
2018-08-09T08:53:34.980Z,27.50
2018-08-09T08:56:03.159Z,27.40
2018-08-09T08:58:31.204Z,27.80
2018-08-09T09:00:59.450Z,28.10
2018-08-09T09:03:27.524Z,28.10
2018-08-09T09:05:55.534Z,28.10
2018-08-09T09:08:23.592Z,28.00
2018-08-09T09:10:54.683Z,27.90
2018-08-09T09:13:23.365Z,27.90
2018-08-09T09:15:51.381Z,28.00
2018-08-09T09:18:19.380Z,28.40
2018-08-09T09:20:47.489Z,28.60
2018-08-09T09:23:15.567Z,28.30
2018-08-09T09:25:43.810Z,28.40
2018-08-09T09:28:11.842Z,28.70
2018-08-09T09:30:39.930Z,28.60
2018-08-09T09:33:07.974Z,29.00
2018-08-09T09:35:42.608Z,29.30
2018-08-09T09:38:10.616Z,29.10
2018-08-09T09:40:38.709Z,28.70
2018-08-09T09:43:07.106Z,28.60
2018-08-09T09:45:35.281Z,28.70
2018-08-09T09:48:03.369Z,29.00
2018-08-09T09:50:31.399Z,29.40
2018-08-09T09:52:59.640Z,29.90
2018-08-09T09:55:27.735Z,30.20
2018-08-09T09:57:55.738Z,30.10
2018-08-09T10:00:27.913Z,30.00
2018-08-09T10:02:55.940Z,29.80
2018-08-09T10:05:23.946Z,29.60
2018-08-09T10:07:52.022Z,29.90
2018-08-09T10:10:20.138Z,30.20
2018-08-09T10:12:48.308Z,30.40
2018-08-09T10:15:16.402Z,30.30
2018-08-09T10:17:44.417Z,30.40
2018-08-09T10:20:12.874Z,30.10
2018-08-09T10:22:40.873Z,30.10
2018-08-09T10:25:08.981Z,30.10
2018-08-09T10:27:37.041Z,30.40
2018-08-09T10:30:06.230Z,30.40
2018-08-09T10:32:34.305Z,30.60
2018-08-09T10:35:02.705Z,30.80
2018-08-09T10:37:30.935Z,31.00
2018-08-09T10:39:58.962Z,31.10
2018-08-09T10:42:26.998Z,31.40
2018-08-09T10:44:55.041Z,31.10
2018-08-09T10:47:23.073Z,30.80
2018-08-09T10:49:51.137Z,30.60
2018-08-09T10:52:19.267Z,30.70
2018-08-09T10:54:47.685Z,30.70
2018-08-09T10:57:15.921Z,30.80
2018-08-09T10:59:43.917Z,31.10
2018-08-09T11:02:12.046Z,31.30
2018-08-09T11:04:40.134Z,31.40
2018-08-09T11:07:08.521Z,31.40
2018-08-09T11:09:36.601Z,31.40
2018-08-09T11:12:04.607Z,31.60
2018-08-09T11:14:32.635Z,32.00
2018-08-09T11:17:00.653Z,32.40
2018-08-09T11:19:28.697Z,32.40
2018-08-09T11:21:56.814Z,32.00
2018-08-09T11:24:24.814Z,32.00
2018-08-09T11:26:52.861Z,32.00
2018-08-09T11:29:20.861Z,32.00
2018-08-09T11:31:48.964Z,32.20
2018-08-09T11:34:17.057Z,32.40
2018-08-09T11:36:45.115Z,32.80
2018-08-09T11:39:13.303Z,32.70
2018-08-09T11:41:41.496Z,32.40
2018-08-09T11:44:11.137Z,32.30
2018-08-09T11:46:39.393Z,32.50
2018-08-09T11:49:07.616Z,32.80
2018-08-09T11:51:35.674Z,33.00
2018-08-09T11:54:03.692Z,33.10
2018-08-09T11:56:31.763Z,33.20
2018-08-09T11:58:59.790Z,33.00
2018-08-09T12:01:27.837Z,33.10
2018-08-09T12:03:55.870Z,33.20
2018-08-09T12:06:23.870Z,33.20
2018-08-09T12:08:51.898Z,33.00
2018-08-09T12:11:19.938Z,33.00
2018-08-09T12:13:47.945Z,32.50
2018-08-09T12:16:15.974Z,32.50
2018-08-09T12:18:44.090Z,32.80
2018-08-09T12:21:12.450Z,32.70
2018-08-09T12:23:40.441Z,32.60
2018-08-09T12:26:08.468Z,32.80
2018-08-09T12:28:36.478Z,32.80
2018-08-09T12:31:04.617Z,32.70
2018-08-09T12:33:32.691Z,32.80
2018-08-09T12:36:00.969Z,33.00
2018-08-09T12:38:29.303Z,33.30
2018-08-09T12:40:57.350Z,33.60
2018-08-09T12:43:26.248Z,33.60
2018-08-09T12:45:54.313Z,33.20
2018-08-09T12:48:22.321Z,33.30
2018-08-09T12:50:50.771Z,33.40
2018-08-09T12:53:18.725Z,33.60
2018-08-09T12:55:46.717Z,33.60
2018-08-09T12:58:14.850Z,33.80
2018-08-09T13:00:42.904Z,33.90
2018-08-09T13:03:11.032Z,34.00
2018-08-09T13:05:39.322Z,33.70
2018-08-09T13:08:07.712Z,33.80
2018-08-09T13:10:35.796Z,33.90
2018-08-09T13:13:03.798Z,34.00
2018-08-09T13:15:32.377Z,34.10
2018-08-09T13:18:00.361Z,33.80
2018-08-09T13:20:28.443Z,33.50
2018-08-09T13:22:56.477Z,33.00
2018-08-09T13:25:24.585Z,32.80
2018-08-09T13:27:52.693Z,32.90
2018-08-09T13:30:20.799Z,32.80
2018-08-09T13:32:48.857Z,32.90
2018-08-09T13:35:16.947Z,33.30
2018-08-09T13:37:45.339Z,33.50
2018-08-09T13:40:13.334Z,33.40
2018-08-09T13:42:41.828Z,33.40
2018-08-09T13:45:13.113Z,33.50
2018-08-09T13:47:41.250Z,33.40
2018-08-09T13:50:10.157Z,33.20
2018-08-09T13:52:38.721Z,33.40
2018-08-09T13:55:07.689Z,33.40
2018-08-09T13:57:35.849Z,33.60
2018-08-09T14:00:04.862Z,33.60
2018-08-09T14:02:32.938Z,33.80
2018-08-09T14:05:00.978Z,33.90
2018-08-09T14:07:29.207Z,34.10
2018-08-09T14:09:57.298Z,34.20
2018-08-09T14:12:25.342Z,34.20
2018-08-09T14:14:53.336Z,34.40
2018-08-09T14:17:21.441Z,34.40
2018-08-09T14:19:49.520Z,34.40
2018-08-09T14:22:17.605Z,34.60
2018-08-09T14:24:45.936Z,34.80
2018-08-09T14:27:13.957Z,35.00
2018-08-09T14:29:41.997Z,35.20
2018-08-09T14:32:10.005Z,35.00
2018-08-09T14:34:38.034Z,35.10
2018-08-09T14:37:06.891Z,35.10
2018-08-09T14:39:35.025Z,35.20
2018-08-09T14:42:03.162Z,35.50
2018-08-09T14:44:31.186Z,35.20
2018-08-09T14:46:59.473Z,34.70
2018-08-09T14:49:27.464Z,34.40
2018-08-09T14:51:55.546Z,34.60
2018-08-09T14:54:23.573Z,34.50
2018-08-09T14:56:51.710Z,34.40
2018-08-09T14:59:19.716Z,34.20
2018-08-09T15:01:47.920Z,34.40
2018-08-09T15:04:15.923Z,34.60
2018-08-09T15:06:44.210Z,34.60
2018-08-09T15:09:12.745Z,34.50
2018-08-09T15:11:40.976Z,34.60
2018-08-09T15:14:10.093Z,34.70
2018-08-09T15:16:38.072Z,34.70
2018-08-09T15:19:06.350Z,34.60
2018-08-09T15:21:34.391Z,34.70
2018-08-09T15:24:02.417Z,35.20
2018-08-09T15:26:30.461Z,35.50
2018-08-09T15:28:58.498Z,35.90
2018-08-09T15:31:26.526Z,36.20
2018-08-09T15:33:54.719Z,36.60
2018-08-09T15:36:22.714Z,37.50
2018-08-09T15:38:50.790Z,38.20
2018-08-09T15:41:19.023Z,39.30
2018-08-09T15:43:47.456Z,39.10
2018-08-09T15:46:15.549Z,39.40
2018-08-09T15:48:43.554Z,39.00
2018-08-09T15:51:11.641Z,39.10
2018-08-09T15:53:39.917Z,39.90
2018-08-09T15:56:07.962Z,40.20
2018-08-09T15:58:36.125Z,39.70
2018-08-09T16:01:04.254Z,39.60
2018-08-09T16:03:32.338Z,39.70
2018-08-09T16:06:00.409Z,40.00
2018-08-09T16:08:28.513Z,39.10
2018-08-09T16:10:56.519Z,38.10
2018-08-09T16:13:24.512Z,38.20
2018-08-09T16:15:52.548Z,38.50
2018-08-09T16:18:20.572Z,38.30
2018-08-09T16:20:48.617Z,39.10
2018-08-09T16:23:16.670Z,39.60
2018-08-09T16:25:44.711Z,39.60
2018-08-09T16:28:12.690Z,39.80
2018-08-09T16:30:40.713Z,39.40
2018-08-09T16:33:09.048Z,39.20
2018-08-09T16:35:37.530Z,39.10
2018-08-09T16:38:05.785Z,38.90
2018-08-09T16:40:33.790Z,39.00
2018-08-09T16:43:01.990Z,39.90
2018-08-09T16:45:30.078Z,39.30
2018-08-09T16:47:58.077Z,38.90
2018-08-09T16:50:26.558Z,38.40
2018-08-09T16:52:54.946Z,38.30
2018-08-09T16:55:23.837Z,38.40
2018-08-09T16:57:51.934Z,38.00
2018-08-09T17:00:21.474Z,37.70
2018-08-09T17:02:50.152Z,36.90
2018-08-09T17:05:19.674Z,36.40
2018-08-09T17:07:47.854Z,36.00
2018-08-09T17:10:17.573Z,35.70
2018-08-09T17:12:45.606Z,35.30
2018-08-09T17:15:17.483Z,34.90
2018-08-09T17:17:45.508Z,34.70
2018-08-09T17:20:17.186Z,34.50
2018-08-09T17:22:45.268Z,33.90
2018-08-09T17:25:13.965Z,33.40
2018-08-09T17:27:43.489Z,33.10
2018-08-09T17:30:12.938Z,32.80
2018-08-09T17:32:41.287Z,32.50
2018-08-09T17:35:10.081Z,32.40
2018-08-09T17:37:38.790Z,32.20
2018-08-09T17:40:09.545Z,32.10
2018-08-09T17:42:37.630Z,32.00
2018-08-09T17:45:06.521Z,32.00
2018-08-09T17:47:34.605Z,31.90
2018-08-09T17:50:02.670Z,31.80
2018-08-09T17:52:30.783Z,31.70
2018-08-09T17:54:58.821Z,31.50
2018-08-09T17:57:26.957Z,31.40
2018-08-09T17:59:55.162Z,31.30
2018-08-09T18:02:23.209Z,31.20
2018-08-09T18:04:51.309Z,31.10
2018-08-09T18:07:19.494Z,31.00
2018-08-09T18:09:47.570Z,30.80
2018-08-09T18:12:15.674Z,30.60
2018-08-09T18:14:45.206Z,30.60
2018-08-09T18:17:13.769Z,30.40
2018-08-09T18:19:42.054Z,30.40
2018-08-09T18:22:11.070Z,30.30
2018-08-09T18:24:39.086Z,30.30
2018-08-09T18:27:07.747Z,30.20
2018-08-09T18:29:35.867Z,30.10
2018-08-09T18:32:03.918Z,30.00
2018-08-09T18:34:32.018Z,30.00
2018-08-09T18:37:00.046Z,30.00
2018-08-09T18:39:28.190Z,29.70
2018-08-09T18:41:56.181Z,29.70
2018-08-09T18:44:24.241Z,29.70
2018-08-09T18:46:52.266Z,29.60
2018-08-09T18:49:20.377Z,29.40
2018-08-09T18:51:48.382Z,29.30
2018-08-09T18:54:16.482Z,29.20
2018-08-09T18:56:44.527Z,29.20
2018-08-09T18:59:12.529Z,29.10
2018-08-09T19:01:40.565Z,29.00
2018-08-09T19:04:08.565Z,28.90
2018-08-09T19:06:36.910Z,29.00
2018-08-09T19:09:07.779Z,28.90
2018-08-09T19:11:35.793Z,28.90
2018-08-09T19:14:10.709Z,28.90
2018-08-09T19:16:38.865Z,28.90
2018-08-09T19:19:06.873Z,28.80
2018-08-09T19:21:35.046Z,28.70
2018-08-09T19:24:03.313Z,28.60
2018-08-09T19:26:31.382Z,28.60
2018-08-09T19:28:59.729Z,28.60
2018-08-09T19:31:27.782Z,28.50
2018-08-09T19:33:55.777Z,28.50
2018-08-09T19:36:23.985Z,28.50
2018-08-09T19:38:52.160Z,28.40
2018-08-09T19:41:20.230Z,28.40
2018-08-09T19:43:48.298Z,28.30
2018-08-09T19:46:16.345Z,28.30
2018-08-09T19:48:44.577Z,28.20
2018-08-09T19:51:12.735Z,28.10
2018-08-09T19:53:40.949Z,28.10
2018-08-09T19:56:09.159Z,28.00
2018-08-09T19:58:37.846Z,28.00
2018-08-09T20:01:06.017Z,27.80
2018-08-09T20:03:34.066Z,27.80
2018-08-09T20:06:02.204Z,27.70
2018-08-09T20:08:30.279Z,27.60
2018-08-09T20:10:58.357Z,27.50
2018-08-09T20:13:26.402Z,27.40
2018-08-09T20:15:54.521Z,27.30
2018-08-09T20:18:22.510Z,27.30
2018-08-09T20:20:50.585Z,27.20
2018-08-09T20:23:18.696Z,27.20
2018-08-09T20:25:47.225Z,27.20
2018-08-09T20:28:15.217Z,27.30
2018-08-09T20:30:43.249Z,27.20
2018-08-09T20:33:11.241Z,27.20
2018-08-09T20:35:39.663Z,27.20
2018-08-09T20:38:07.670Z,27.20
2018-08-09T20:40:35.666Z,27.10
2018-08-09T20:43:03.710Z,27.00
2018-08-09T20:45:31.846Z,27.00
2018-08-09T20:47:59.941Z,27.00
2018-08-09T20:50:28.725Z,27.10
2018-08-09T20:52:56.737Z,27.30
2018-08-09T20:55:24.785Z,27.50
2018-08-09T20:57:53.620Z,27.70
2018-08-09T21:00:26.285Z,27.80
2018-08-09T21:02:55.706Z,28.00
2018-08-09T21:05:31.994Z,28.00
2018-08-09T21:08:00.037Z,28.10
2018-08-09T21:10:28.485Z,28.10
2018-08-09T21:12:56.845Z,27.90
2018-08-09T21:15:25.072Z,27.70
2018-08-09T21:17:52.958Z,27.50
2018-08-09T21:20:21.001Z,27.40
2018-08-09T21:22:50.000Z,27.20
2018-08-09T21:25:18.290Z,26.90
2018-08-09T21:27:46.921Z,26.70
2018-08-09T21:30:18.721Z,26.70
2018-08-09T21:32:47.253Z,26.60
2018-08-09T21:35:15.441Z,26.60
2018-08-09T21:37:44.037Z,26.60
2018-08-09T21:40:12.830Z,26.60
2018-08-09T21:42:40.942Z,26.50
2018-08-09T21:45:11.081Z,26.50
2018-08-09T21:47:39.077Z,26.30
2018-08-09T21:50:09.734Z,26.30
2018-08-09T21:52:38.001Z,26.30
2018-08-09T21:55:06.889Z,26.30
2018-08-09T21:57:35.094Z,26.30
2018-08-09T22:00:03.150Z,26.30
2018-08-09T22:02:31.197Z,26.40
2018-08-09T22:05:04.685Z,26.30
2018-08-09T22:07:38.661Z,26.20
2018-08-09T22:10:12.213Z,26.20
2018-08-09T22:12:45.717Z,26.20
2018-08-09T22:15:20.261Z,26.20
2018-08-09T22:17:54.205Z,26.20
2018-08-09T22:20:27.675Z,26.10
2018-08-09T22:22:55.668Z,26.10
2018-08-09T22:25:23.665Z,26.00
2018-08-09T22:27:51.701Z,25.90
2018-08-09T22:30:19.887Z,25.80
2018-08-09T22:32:47.922Z,25.80
2018-08-09T22:35:15.953Z,25.80
2018-08-09T22:37:44.345Z,26.00
2018-08-09T22:40:12.341Z,26.00
2018-08-09T22:42:40.419Z,25.90
2018-08-09T22:45:08.458Z,25.80
2018-08-09T22:47:36.514Z,25.60
2018-08-09T22:50:04.721Z,25.60
2018-08-09T22:52:32.850Z,25.60
2018-08-09T22:55:00.935Z,25.50
2018-08-09T22:57:28.925Z,25.60
2018-08-09T22:59:56.954Z,25.60
2018-08-09T23:02:24.962Z,25.50
2018-08-09T23:04:53.073Z,25.50
2018-08-09T23:07:21.175Z,25.40
2018-08-09T23:09:49.149Z,25.30
2018-08-09T23:12:17.421Z,25.40
2018-08-09T23:14:45.429Z,25.30
2018-08-09T23:17:13.417Z,25.20
2018-08-09T23:19:41.678Z,25.30
2018-08-09T23:22:09.766Z,25.20
2018-08-09T23:24:37.850Z,25.10
2018-08-09T23:27:05.886Z,25.00
2018-08-09T23:29:34.109Z,25.00
2018-08-09T23:32:02.205Z,25.00
2018-08-09T23:34:30.277Z,25.00
2018-08-09T23:36:58.305Z,24.90
2018-08-09T23:39:26.353Z,24.90
2018-08-09T23:41:54.425Z,24.70
2018-08-09T23:44:22.518Z,24.50
2018-08-09T23:46:50.601Z,24.40
2018-08-09T23:49:18.681Z,24.40
2018-08-09T23:51:46.674Z,24.30
2018-08-09T23:54:14.697Z,24.20
2018-08-09T23:56:42.805Z,24.20
2018-08-09T23:59:10.790Z,24.10
